sensor_id;sensor_type;location;lat;lon;timestamp;pressure;altitude;pressure_sealevel;temperature;humidity
3206;BME280;1615;53.602;11.418;2023-07-13T00:02:06;100746.56;;;19.30;100.00
3206;BME280;1615;53.602;11.418;2023-07-13T00:04:32;100827.06;;;19.78;100.00
3206;BME280;1615;53.602;11.418;2023-07-13T00:06:57;100730.19;;;19.01;100.00
3206;BME280;1615;53.602;11.418;2023-07-13T00:09:22;100813.53;;;19.76;100.00
3206;BME280;1615;53.602;11.418;2023-07-13T00:11:53;100812.38;;;19.77;100.00
3206;BME280;1615;53.602;11.418;2023-07-13T00:14:19;100781.25;;;19.60;100.00
3206;BME280;1615;53.602;11.418;2023-07-13T00:16:44;100811.31;;;19.82;100.00
3206;BME280;1615;53.602;11.418;2023-07-13T00:19:11;100755.34;;;19.44;100.00
3206;BME280;1615;53.602;11.418;2023-07-13T00:21:37;100666.84;;;18.94;100.00
3206;BME280;1615;53.602;11.418;2023-07-13T00:24:03;100808.31;;;19.75;100.00
3206;BME280;1615;53.602;11.418;2023-07-13T00:26:28;100787.25;;;19.74;100.00
3206;BME280;1615;53.602;11.418;2023-07-13T00:28:54;100816.28;;;19.88;100.00
3206;BME280;1615;53.602;11.418;2023-07-13T00:31:19;100732.19;;;19.40;100.00
3206;BME280;1615;53.602;11.418;2023-07-13T00:33:44;100787.72;;;19.64;100.00
3206;BME280;1615;53.602;11.418;2023-07-13T00:36:10;100823.94;;;19.79;100.00
3206;BME280;1615;53.602;11.418;2023-07-13T00:38:36;100794.22;;;19.68;100.00
3206;BME280;1615;53.602;11.418;2023-07-13T00:41:03;100768.31;;;19.52;100.00
3206;BME280;1615;53.602;11.418;2023-07-13T00:43:29;100808.81;;;19.65;100.00
3206;BME280;1615;53.602;11.418;2023-07-13T00:48:31;100880.91;;;19.70;100.00
3206;BME280;1615;53.602;11.418;2023-07-13T00:50:58;100824.69;;;19.64;100.00
3206;BME280;1615;53.602;11.418;2023-07-13T00:53:27;100778.06;;;19.34;100.00
3206;BME280;1615;53.602;11.418;2023-07-13T00:55:55;100825.06;;;19.63;100.00
3206;BME280;1615;53.602;11.418;2023-07-13T00:58:21;100795.25;;;19.36;100.00
3206;BME280;1615;53.602;11.418;2023-07-13T01:00:47;100809.25;;;19.39;100.00
3206;BME280;1615;53.602;11.418;2023-07-13T01:03:14;100828.22;;;19.49;100.00
3206;BME280;1615;53.602;11.418;2023-07-13T01:05:39;100801.03;;;19.31;100.00
3206;BME280;1615;53.602;11.418;2023-07-13T01:08:05;100833.22;;;19.44;100.00
3206;BME280;1615;53.602;11.418;2023-07-13T01:10:31;100709.63;;;18.78;100.00
3206;BME280;1615;53.602;11.418;2023-07-13T01:13:07;100771.94;;;19.16;100.00
3206;BME280;1615;53.602;11.418;2023-07-13T01:18:02;100789.31;;;19.37;100.00
3206;BME280;1615;53.602;11.418;2023-07-13T01:20:27;100791.75;;;19.39;100.00
3206;BME280;1615;53.602;11.418;2023-07-13T01:22:53;100794.50;;;19.39;100.00
3206;BME280;1615;53.602;11.418;2023-07-13T01:25:20;100804.94;;;19.42;100.00
3206;BME280;1615;53.602;11.418;2023-07-13T01:27:45;100733.91;;;18.81;100.00
3206;BME280;1615;53.602;11.418;2023-07-13T01:30:11;100781.91;;;19.17;100.00
3206;BME280;1615;53.602;11.418;2023-07-13T01:32:36;100792.66;;;19.19;100.00
3206;BME280;1615;53.602;11.418;2023-07-13T01:35:01;100669.81;;;18.26;100.00
3206;BME280;1615;53.602;11.418;2023-07-13T01:37:27;100768.41;;;18.80;100.00
3206;BME280;1615;53.602;11.418;2023-07-13T01:39:52;100759.38;;;18.71;100.00
3206;BME280;1615;53.602;11.418;2023-07-13T01:42:18;100546.69;;;17.26;100.00
3206;BME280;1615;53.602;11.418;2023-07-13T01:44:43;100733.78;;;18.41;100.00
3206;BME280;1615;53.602;11.418;2023-07-13T01:47:10;100728.84;;;18.35;100.00
3206;BME280;1615;53.602;11.418;2023-07-13T01:49:35;100792.00;;;18.74;100.00
3206;BME280;1615;53.602;11.418;2023-07-13T01:52:00;100802.56;;;18.80;100.00
3206;BME280;1615;53.602;11.418;2023-07-13T01:54:26;100716.06;;;18.22;100.00
3206;BME280;1615;53.602;11.418;2023-07-13T01:56:51;100829.28;;;18.85;100.00
3206;BME280;1615;53.602;11.418;2023-07-13T01:59:16;100685.56;;;17.77;100.00
3206;BME280;1615;53.602;11.418;2023-07-13T02:01:41;100823.69;;;18.61;100.00
3206;BME280;1615;53.602;11.418;2023-07-13T02:04:07;100823.81;;;18.52;100.00
3206;BME280;1615;53.602;11.418;2023-07-13T02:06:32;100855.88;;;18.62;100.00
3206;BME280;1615;53.602;11.418;2023-07-13T02:08:58;100724.06;;;17.79;100.00
3206;BME280;1615;53.602;11.418;2023-07-13T02:11:23;100848.22;;;18.47;100.00
3206;BME280;1615;53.602;11.418;2023-07-13T02:13:50;100828.44;;;18.16;100.00
3206;BME280;1615;53.602;11.418;2023-07-13T02:16:15;100836.66;;;18.24;100.00
3206;BME280;1615;53.602;11.418;2023-07-13T02:18:41;100854.22;;;18.37;100.00
3206;BME280;1615;53.602;11.418;2023-07-13T02:21:06;100852.59;;;18.36;100.00
3206;BME280;1615;53.602;11.418;2023-07-13T02:23:32;100817.13;;;18.21;100.00
3206;BME280;1615;53.602;11.418;2023-07-13T02:25:58;100860.59;;;18.37;100.00
3206;BME280;1615;53.602;11.418;2023-07-13T02:28:24;100857.44;;;18.39;100.00
3206;BME280;1615;53.602;11.418;2023-07-13T02:30:50;100751.13;;;17.82;100.00
3206;BME280;1615;53.602;11.418;2023-07-13T02:33:15;100865.44;;;18.40;100.00
3206;BME280;1615;53.602;11.418;2023-07-13T02:35:41;100852.59;;;18.36;100.00
3206;BME280;1615;53.602;11.418;2023-07-13T02:38:06;100844.19;;;18.24;100.00
3206;BME280;1615;53.602;11.418;2023-07-13T02:40:32;100733.50;;;17.66;100.00
3206;BME280;1615;53.602;11.418;2023-07-13T02:43:01;100923.59;;;18.37;100.00
3206;BME280;1615;53.602;11.418;2023-07-13T02:45:27;100851.38;;;18.25;100.00
3206;BME280;1615;53.602;11.418;2023-07-13T02:47:52;100848.38;;;18.30;100.00
3206;BME280;1615;53.602;11.418;2023-07-13T02:50:18;100863.69;;;18.36;100.00
3206;BME280;1615;53.602;11.418;2023-07-13T02:52:43;100839.88;;;18.35;100.00
3206;BME280;1615;53.602;11.418;2023-07-13T02:55:09;100837.28;;;18.30;100.00
3206;BME280;1615;53.602;11.418;2023-07-13T02:57:34;100793.00;;;18.01;100.00
3206;BME280;1615;53.602;11.418;2023-07-13T03:00:01;100836.38;;;18.38;100.00
3206;BME280;1615;53.602;11.418;2023-07-13T03:02:30;100901.31;;;18.45;100.00
3206;BME280;1615;53.602;11.418;2023-07-13T03:04:55;100841.19;;;18.29;100.00
3206;BME280;1615;53.602;11.418;2023-07-13T03:07:21;100852.03;;;18.22;100.00
3206;BME280;1615;53.602;11.418;2023-07-13T03:09:46;100874.81;;;18.36;100.00
3206;BME280;1615;53.602;11.418;2023-07-13T03:12:11;100863.25;;;18.25;100.00
3206;BME280;1615;53.602;11.418;2023-07-13T03:14:37;100629.59;;;16.78;100.00
3206;BME280;1615;53.602;11.418;2023-07-13T03:17:02;100848.53;;;18.13;100.00
3206;BME280;1615;53.602;11.418;2023-07-13T03:19:27;100826.72;;;17.91;100.00
3206;BME280;1615;53.602;11.418;2023-07-13T03:21:53;100771.56;;;17.57;100.00
3206;BME280;1615;53.602;11.418;2023-07-13T03:24:18;100861.50;;;18.09;100.00
3206;BME280;1615;53.602;11.418;2023-07-13T03:26:44;100870.06;;;18.16;100.00
3206;BME280;1615;53.602;11.418;2023-07-13T03:29:09;100737.75;;;17.22;100.00
3206;BME280;1615;53.602;11.418;2023-07-13T03:31:36;100887.22;;;17.97;100.00
3206;BME280;1615;53.602;11.418;2023-07-13T03:34:02;100869.47;;;17.90;100.00
3206;BME280;1615;53.602;11.418;2023-07-13T03:36:29;100811.94;;;17.46;100.00
3206;BME280;1615;53.602;11.418;2023-07-13T03:38:57;100827.69;;;17.54;100.00
3206;BME280;1615;53.602;11.418;2023-07-13T03:41:24;100808.91;;;17.30;100.00
3206;BME280;1615;53.602;11.418;2023-07-13T03:43:50;100869.34;;;17.86;100.00
3206;BME280;1615;53.602;11.418;2023-07-13T03:46:16;100860.66;;;17.76;100.00
3206;BME280;1615;53.602;11.418;2023-07-13T03:48:44;100872.88;;;17.75;100.00
3206;BME280;1615;53.602;11.418;2023-07-13T03:51:10;100873.63;;;17.84;100.00
3206;BME280;1615;53.602;11.418;2023-07-13T03:53:38;100759.72;;;17.07;100.00
3206;BME280;1615;53.602;11.418;2023-07-13T03:56:04;100813.09;;;17.45;100.00
3206;BME280;1615;53.602;11.418;2023-07-13T03:58:35;100882.28;;;17.82;100.00
3206;BME280;1615;53.602;11.418;2023-07-13T04:01:02;100837.66;;;17.55;100.00
3206;BME280;1615;53.602;11.418;2023-07-13T04:03:28;100872.47;;;17.85;100.00
3206;BME280;1615;53.602;11.418;2023-07-13T04:05:56;100818.28;;;17.67;100.00
3206;BME280;1615;53.602;11.418;2023-07-13T04:08:28;100722.41;;;17.04;100.00
3206;BME280;1615;53.602;11.418;2023-07-13T04:10:54;100854.25;;;17.96;100.00
3206;BME280;1615;53.602;11.418;2023-07-13T04:13:21;100861.56;;;18.00;100.00
3206;BME280;1615;53.602;11.418;2023-07-13T04:15:47;100852.44;;;18.00;100.00
3206;BME280;1615;53.602;11.418;2023-07-13T04:18:12;100710.13;;;16.93;100.00
3206;BME280;1615;53.602;11.418;2023-07-13T04:20:38;100792.81;;;17.53;100.00
3206;BME280;1615;53.602;11.418;2023-07-13T04:23:03;100714.31;;;17.20;100.00
3206;BME280;1615;53.602;11.418;2023-07-13T04:25:28;100846.63;;;17.93;100.00
3206;BME280;1615;53.602;11.418;2023-07-13T04:27:54;100778.72;;;17.58;100.00
3206;BME280;1615;53.602;11.418;2023-07-13T04:30:20;100865.19;;;18.13;100.00
3206;BME280;1615;53.602;11.418;2023-07-13T04:32:45;100738.94;;;17.42;100.00
3206;BME280;1615;53.602;11.418;2023-07-13T04:35:10;100822.84;;;18.04;100.00
3206;BME280;1615;53.602;11.418;2023-07-13T04:37:36;100844.88;;;18.21;100.00
3206;BME280;1615;53.602;11.418;2023-07-13T04:40:02;100811.06;;;18.07;100.00
3206;BME280;1615;53.602;11.418;2023-07-13T04:42:28;100850.38;;;18.41;100.00
3206;BME280;1615;53.602;11.418;2023-07-13T04:44:54;100855.16;;;18.41;100.00
3206;BME280;1615;53.602;11.418;2023-07-13T04:47:19;100862.75;;;18.76;100.00
3206;BME280;1615;53.602;11.418;2023-07-13T04:49:45;100776.88;;;18.27;100.00
3206;BME280;1615;53.602;11.418;2023-07-13T04:52:11;100847.22;;;18.75;100.00
3206;BME280;1615;53.602;11.418;2023-07-13T04:54:38;100798.47;;;18.54;100.00
3206;BME280;1615;53.602;11.418;2023-07-13T04:57:04;100870.16;;;19.08;100.00
3206;BME280;1615;53.602;11.418;2023-07-13T04:59:31;100820.16;;;18.96;100.00
3206;BME280;1615;53.602;11.418;2023-07-13T05:01:57;100866.13;;;19.42;100.00
3206;BME280;1615;53.602;11.418;2023-07-13T05:04:22;100772.91;;;18.96;100.00
3206;BME280;1615;53.602;11.418;2023-07-13T05:06:47;100753.81;;;18.95;100.00
3206;BME280;1615;53.602;11.418;2023-07-13T05:09:13;100833.84;;;19.65;100.00
3206;BME280;1615;53.602;11.418;2023-07-13T05:11:38;100647.75;;;18.53;100.00
3206;BME280;1615;53.602;11.418;2023-07-13T05:14:04;100829.69;;;19.59;100.00
3206;BME280;1615;53.602;11.418;2023-07-13T05:16:29;100845.75;;;20.05;100.00
3206;BME280;1615;53.602;11.418;2023-07-13T05:18:55;100858.16;;;20.19;100.00
3206;BME280;1615;53.602;11.418;2023-07-13T05:21:20;100838.75;;;20.23;100.00
3206;BME280;1615;53.602;11.418;2023-07-13T05:23:45;100660.22;;;18.47;100.00
3206;BME280;1615;53.602;11.418;2023-07-13T05:26:11;100869.38;;;20.66;100.00
3206;BME280;1615;53.602;11.418;2023-07-13T05:28:37;100874.34;;;20.72;100.00
3206;BME280;1615;53.602;11.418;2023-07-13T05:31:07;100751.09;;;20.17;100.00
3206;BME280;1615;53.602;11.418;2023-07-13T05:33:32;100773.94;;;20.38;100.00
3206;BME280;1615;53.602;11.418;2023-07-13T05:35:57;100818.94;;;20.86;100.00
3206;BME280;1615;53.602;11.418;2023-07-13T05:38:23;100881.63;;;21.39;100.00
3206;BME280;1615;53.602;11.418;2023-07-13T05:40:49;100895.53;;;21.54;100.00
3206;BME280;1615;53.602;11.418;2023-07-13T05:43:15;100876.44;;;21.72;100.00
3206;BME280;1615;53.602;11.418;2023-07-13T05:45:40;100837.28;;;21.53;100.00
3206;BME280;1615;53.602;11.418;2023-07-13T05:48:06;100807.63;;;21.45;100.00
3206;BME280;1615;53.602;11.418;2023-07-13T05:50:31;100859.69;;;21.91;100.00
3206;BME280;1615;53.602;11.418;2023-07-13T05:52:57;100872.47;;;22.11;100.00
3206;BME280;1615;53.602;11.418;2023-07-13T05:55:23;100876.88;;;22.12;99.71
3206;BME280;1615;53.602;11.418;2023-07-13T05:57:48;100836.03;;;22.04;97.73
3206;BME280;1615;53.602;11.418;2023-07-13T06:00:14;100876.22;;;22.37;96.18
3206;BME280;1615;53.602;11.418;2023-07-13T06:02:39;100804.06;;;22.01;94.34
3206;BME280;1615;53.602;11.418;2023-07-13T06:05:05;100785.84;;;22.07;94.43
3206;BME280;1615;53.602;11.418;2023-07-13T06:07:30;100807.78;;;22.28;93.40
3206;BME280;1615;53.602;11.418;2023-07-13T06:09:56;100868.22;;;22.77;94.10
3206;BME280;1615;53.602;11.418;2023-07-13T06:12:21;100851.50;;;22.81;92.60
3206;BME280;1615;53.602;11.418;2023-07-13T06:14:46;100718.84;;;22.30;89.79
3206;BME280;1615;53.602;11.418;2023-07-13T06:17:12;100877.97;;;23.58;86.47
3206;BME280;1615;53.602;11.418;2023-07-13T06:19:37;100868.16;;;23.71;80.88
3206;BME280;1615;53.602;11.418;2023-07-13T06:22:04;100811.34;;;23.15;79.36
3206;BME280;1615;53.602;11.418;2023-07-13T06:24:30;100818.09;;;23.14;79.09
3206;BME280;1615;53.602;11.418;2023-07-13T06:26:55;100845.13;;;23.29;81.20
3206;BME280;1615;53.602;11.418;2023-07-13T06:29:20;100858.44;;;23.35;80.45
3206;BME280;1615;53.602;11.418;2023-07-13T06:31:45;100876.34;;;23.57;81.76
3206;BME280;1615;53.602;11.418;2023-07-13T06:34:11;100743.97;;;22.75;78.31
3206;BME280;1615;53.602;11.418;2023-07-13T06:36:36;100838.53;;;23.40;79.88
3206;BME280;1615;53.602;11.418;2023-07-13T06:39:03;100874.59;;;23.45;76.72
3206;BME280;1615;53.602;11.418;2023-07-13T06:41:29;100863.34;;;23.42;77.06
3206;BME280;1615;53.602;11.418;2023-07-13T06:43:55;100864.19;;;23.46;76.17
3206;BME280;1615;53.602;11.418;2023-07-13T06:46:22;100888.03;;;23.62;74.47
3206;BME280;1615;53.602;11.418;2023-07-13T06:48:47;100833.34;;;23.42;75.16
3206;BME280;1615;53.602;11.418;2023-07-13T06:51:12;100835.03;;;23.47;75.08
3206;BME280;1615;53.602;11.418;2023-07-13T06:53:38;100819.66;;;23.37;74.49
3206;BME280;1615;53.602;11.418;2023-07-13T06:56:03;100878.16;;;23.72;70.54
3206;BME280;1615;53.602;11.418;2023-07-13T06:58:29;100825.28;;;23.37;70.84
3206;BME280;1615;53.602;11.418;2023-07-13T07:00:54;100912.41;;;23.62;66.07
3206;BME280;1615;53.602;11.418;2023-07-13T07:03:19;100801.28;;;23.14;66.75
3206;BME280;1615;53.602;11.418;2023-07-13T07:05:45;100893.34;;;23.71;66.54
3206;BME280;1615;53.602;11.418;2023-07-13T07:08:11;100815.13;;;23.26;64.80
3206;BME280;1615;53.602;11.418;2023-07-13T07:10:36;100876.47;;;23.64;65.23
3206;BME280;1615;53.602;11.418;2023-07-13T07:13:03;100885.72;;;23.68;67.06
3206;BME280;1615;53.602;11.418;2023-07-13T07:15:29;100909.13;;;23.82;66.90
3206;BME280;1615;53.602;11.418;2023-07-13T07:17:54;100901.00;;;23.74;66.62
3206;BME280;1615;53.602;11.418;2023-07-13T07:20:20;100827.09;;;23.26;65.62
3206;BME280;1615;53.602;11.418;2023-07-13T07:22:46;100908.81;;;23.87;65.62
3206;BME280;1615;53.602;11.418;2023-07-13T07:25:11;100899.16;;;23.85;65.57
3206;BME280;1615;53.602;11.418;2023-07-13T07:27:37;100921.06;;;24.05;67.36
3206;BME280;1615;53.602;11.418;2023-07-13T07:30:03;100895.03;;;24.05;66.84
3206;BME280;1615;53.602;11.418;2023-07-13T07:32:29;100908.31;;;24.08;65.61
3206;BME280;1615;53.602;11.418;2023-07-13T07:34:56;100908.22;;;24.01;64.87
3206;BME280;1615;53.602;11.418;2023-07-13T07:37:21;100889.91;;;23.81;65.33
3206;BME280;1615;53.602;11.418;2023-07-13T07:39:47;100906.38;;;24.12;67.95
3206;BME280;1615;53.602;11.418;2023-07-13T07:42:12;100884.53;;;23.95;65.71
3206;BME280;1615;53.602;11.418;2023-07-13T07:44:37;100869.34;;;23.70;65.27
3206;BME280;1615;53.602;11.418;2023-07-13T07:47:03;100741.91;;;22.98;67.67
3206;BME280;1615;53.602;11.418;2023-07-13T07:49:28;100902.31;;;24.09;67.29
3206;BME280;1615;53.602;11.418;2023-07-13T07:51:54;100893.97;;;24.13;66.79
3206;BME280;1615;53.602;11.418;2023-07-13T07:54:19;100850.81;;;23.62;64.89
3206;BME280;1615;53.602;11.418;2023-07-13T07:56:44;100908.09;;;23.94;65.55
3206;BME280;1615;53.602;11.418;2023-07-13T07:59:10;100871.84;;;23.49;65.32
3206;BME280;1615;53.602;11.418;2023-07-13T08:01:36;100870.53;;;23.69;64.58
3206;BME280;1615;53.602;11.418;2023-07-13T08:04:01;100881.75;;;23.43;64.20
3206;BME280;1615;53.602;11.418;2023-07-13T08:06:27;100870.31;;;23.29;65.39
3206;BME280;1615;53.602;11.418;2023-07-13T08:08:53;100864.47;;;23.15;67.38
3206;BME280;1615;53.602;11.418;2023-07-13T08:11:21;100837.53;;;22.81;67.15
3206;BME280;1615;53.602;11.418;2023-07-13T08:13:47;100886.41;;;23.13;67.57
3206;BME280;1615;53.602;11.418;2023-07-13T08:16:12;100913.78;;;23.23;68.07
3206;BME280;1615;53.602;11.418;2023-07-13T08:18:38;100906.63;;;23.48;68.36
3206;BME280;1615;53.602;11.418;2023-07-13T08:21:07;100925.75;;;23.46;69.17
3206;BME280;1615;53.602;11.418;2023-07-13T08:23:34;100894.41;;;23.33;68.26
3206;BME280;1615;53.602;11.418;2023-07-13T08:26:00;100880.06;;;23.38;68.44
3206;BME280;1615;53.602;11.418;2023-07-13T08:28:30;100907.53;;;23.55;69.29
3206;BME280;1615;53.602;11.418;2023-07-13T08:31:00;100897.06;;;23.52;68.61
3206;BME280;1615;53.602;11.418;2023-07-13T08:33:25;100765.47;;;22.71;69.23
3206;BME280;1615;53.602;11.418;2023-07-13T08:35:51;100828.13;;;23.15;70.78
3206;BME280;1615;53.602;11.418;2023-07-13T08:38:17;100885.19;;;23.59;71.49
3206;BME280;1615;53.602;11.418;2023-07-13T08:40:42;100872.69;;;23.53;70.34
3206;BME280;1615;53.602;11.418;2023-07-13T08:43:16;100891.03;;;23.76;69.26
3206;BME280;1615;53.602;11.418;2023-07-13T08:45:48;100901.94;;;24.11;68.78
3206;BME280;1615;53.602;11.418;2023-07-13T08:48:32;100901.03;;;24.33;67.86
3206;BME280;1615;53.602;11.418;2023-07-13T08:51:08;100887.03;;;24.36;67.80
3206;BME280;1615;53.602;11.418;2023-07-13T08:53:46;100834.19;;;24.02;65.86
3206;BME280;1615;53.602;11.418;2023-07-13T08:56:18;100920.19;;;24.31;67.68
3206;BME280;1615;53.602;11.418;2023-07-13T08:58:44;100913.16;;;24.11;68.37
3206;BME280;1615;53.602;11.418;2023-07-13T09:01:31;100895.41;;;24.33;67.54
3206;BME280;1615;53.602;11.418;2023-07-13T09:04:04;100888.34;;;24.46;69.23
3206;BME280;1615;53.602;11.418;2023-07-13T09:06:42;100892.34;;;24.45;69.37
3206;BME280;1615;53.602;11.418;2023-07-13T09:12:14;100892.28;;;24.38;69.85
3206;BME280;1615;53.602;11.418;2023-07-13T09:14:54;100883.28;;;24.22;68.34
3206;BME280;1615;53.602;11.418;2023-07-13T09:17:42;100894.03;;;24.53;71.07
3206;BME280;1615;53.602;11.418;2023-07-13T09:20:35;100888.56;;;24.60;66.37
3206;BME280;1615;53.602;11.418;2023-07-13T09:23:05;100847.19;;;24.53;64.10
3206;BME280;1615;53.602;11.418;2023-07-13T09:25:34;100890.38;;;24.82;65.09
3206;BME280;1615;53.602;11.418;2023-07-13T09:28:11;100907.72;;;24.58;65.58
3206;BME280;1615;53.602;11.418;2023-07-13T09:31:14;100891.81;;;24.69;67.22
3206;BME280;1615;53.602;11.418;2023-07-13T09:33:40;100859.06;;;24.40;66.74
3206;BME280;1615;53.602;11.418;2023-07-13T09:38:43;100883.34;;;24.62;74.48
3206;BME280;1615;53.602;11.418;2023-07-13T09:41:35;100908.50;;;24.55;78.52
3206;BME280;1615;53.602;11.418;2023-07-13T09:44:11;100903.81;;;24.33;78.92
3206;BME280;1615;53.602;11.418;2023-07-13T09:46:40;100899.50;;;24.06;81.17
3206;BME280;1615;53.602;11.418;2023-07-13T09:49:10;100870.94;;;23.71;82.11
3206;BME280;1615;53.602;11.418;2023-07-13T09:51:37;100888.41;;;23.61;83.26
3206;BME280;1615;53.602;11.418;2023-07-13T09:54:02;100894.78;;;23.58;86.09
3206;BME280;1615;53.602;11.418;2023-07-13T09:56:29;100918.00;;;23.62;85.47
3206;BME280;1615;53.602;11.418;2023-07-13T09:58:56;100929.09;;;23.55;85.34
3206;BME280;1615;53.602;11.418;2023-07-13T10:01:52;100921.56;;;23.59;84.83
3206;BME280;1615;53.602;11.418;2023-07-13T10:04:18;100917.03;;;23.77;85.36
3206;BME280;1615;53.602;11.418;2023-07-13T10:06:45;100841.22;;;23.11;77.11
3206;BME280;1615;53.602;11.418;2023-07-13T10:09:21;100876.59;;;23.22;74.50
3206;BME280;1615;53.602;11.418;2023-07-13T10:11:46;100935.78;;;23.73;77.94
3206;BME280;1615;53.602;11.418;2023-07-13T10:14:20;100805.72;;;22.89;93.29
3206;BME280;1615;53.602;11.418;2023-07-13T10:16:50;100809.97;;;22.57;97.42
3206;BME280;1615;53.602;11.418;2023-07-13T10:19:23;100947.31;;;23.00;100.00
3206;BME280;1615;53.602;11.418;2023-07-13T10:21:57;100926.09;;;22.77;100.00
3206;BME280;1615;53.602;11.418;2023-07-13T10:24:30;100934.06;;;22.75;100.00
3206;BME280;1615;53.602;11.418;2023-07-13T10:27:05;100938.06;;;22.74;100.00
3206;BME280;1615;53.602;11.418;2023-07-13T10:29:44;100890.44;;;22.48;100.00
3206;BME280;1615;53.602;11.418;2023-07-13T10:32:12;100947.75;;;22.80;100.00
3206;BME280;1615;53.602;11.418;2023-07-13T10:34:39;100894.81;;;22.68;100.00
3206;BME280;1615;53.602;11.418;2023-07-13T10:37:07;100940.06;;;22.96;100.00
3206;BME280;1615;53.602;11.418;2023-07-13T10:39:39;100925.56;;;23.13;100.00
3206;BME280;1615;53.602;11.418;2023-07-13T10:42:09;100759.44;;;22.24;100.00
3206;BME280;1615;53.602;11.418;2023-07-13T10:44:38;100927.06;;;23.52;100.00
3206;BME280;1615;53.602;11.418;2023-07-13T10:47:08;100894.44;;;23.37;100.00
3206;BME280;1615;53.602;11.418;2023-07-13T10:49:36;100898.72;;;23.57;100.00
3206;BME280;1615;53.602;11.418;2023-07-13T10:52:02;100902.06;;;23.66;100.00
3206;BME280;1615;53.602;11.418;2023-07-13T10:54:30;100923.59;;;23.88;100.00
3206;BME280;1615;53.602;11.418;2023-07-13T10:59:42;100921.00;;;23.98;100.00
3206;BME280;1615;53.602;11.418;2023-07-13T11:02:27;100898.13;;;24.26;100.00
3206;BME280;1615;53.602;11.418;2023-07-13T11:04:55;100912.78;;;24.45;100.00
3206;BME280;1615;53.602;11.418;2023-07-13T11:07:30;100913.44;;;24.65;100.00
3206;BME280;1615;53.602;11.418;2023-07-13T11:10:04;100906.97;;;24.61;86.31
3206;BME280;1615;53.602;11.418;2023-07-13T11:12:52;100923.13;;;24.71;98.52
3206;BME280;1615;53.602;11.418;2023-07-13T11:15:30;100891.34;;;24.60;87.31
3206;BME280;1615;53.602;11.418;2023-07-13T11:17:56;100837.88;;;24.46;85.62
3206;BME280;1615;53.602;11.418;2023-07-13T11:20:36;100919.00;;;24.98;76.99
3206;BME280;1615;53.602;11.418;2023-07-13T11:25:37;100787.50;;;24.13;74.97
3206;BME280;1615;53.602;11.418;2023-07-13T11:28:15;100913.91;;;25.10;75.96
3206;BME280;1615;53.602;11.418;2023-07-13T11:36:13;100913.78;;;25.00;69.53
3206;BME280;1615;53.602;11.418;2023-07-13T11:38:41;100917.69;;;24.88;76.08
3206;BME280;1615;53.602;11.418;2023-07-13T11:41:23;100911.63;;;24.83;84.25
3206;BME280;1615;53.602;11.418;2023-07-13T11:43:51;100891.34;;;24.60;76.29
3206;BME280;1615;53.602;11.418;2023-07-13T11:46:24;100921.63;;;24.84;74.40
3206;BME280;1615;53.602;11.418;2023-07-13T11:48:50;100907.97;;;24.79;70.05
3206;BME280;1615;53.602;11.418;2023-07-13T11:51:22;100616.34;;;22.89;67.53
3206;BME280;1615;53.602;11.418;2023-07-13T11:53:50;100908.91;;;24.57;65.97
3206;BME280;1615;53.602;11.418;2023-07-13T11:56:16;100891.66;;;24.55;71.52
3206;BME280;1615;53.602;11.418;2023-07-13T11:58:42;100903.75;;;24.59;71.90
3206;BME280;1615;53.602;11.418;2023-07-13T12:01:17;100916.03;;;24.51;69.13
3206;BME280;1615;53.602;11.418;2023-07-13T12:03:44;100944.13;;;24.54;69.14
3206;BME280;1615;53.602;11.418;2023-07-13T12:06:27;100920.72;;;24.40;69.21
3206;BME280;1615;53.602;11.418;2023-07-13T12:08:55;100919.25;;;24.20;78.18
3206;BME280;1615;53.602;11.418;2023-07-13T12:11:21;100923.06;;;24.05;69.96
3206;BME280;1615;53.602;11.418;2023-07-13T12:13:47;100943.97;;;24.11;68.01
3206;BME280;1615;53.602;11.418;2023-07-13T12:16:33;100947.25;;;24.16;68.25
3206;BME280;1615;53.602;11.418;2023-07-13T12:19:02;100941.84;;;24.01;65.21
3206;BME280;1615;53.602;11.418;2023-07-13T12:21:33;100926.88;;;24.19;66.39
3206;BME280;1615;53.602;11.418;2023-07-13T12:24:00;100889.19;;;24.13;67.93
3206;BME280;1615;53.602;11.418;2023-07-13T12:26:29;100936.69;;;24.69;64.26
3206;BME280;1615;53.602;11.418;2023-07-13T12:28:56;100925.25;;;24.84;62.42
3206;BME280;1615;53.602;11.418;2023-07-13T12:33:58;100896.59;;;25.05;67.31
3206;BME280;1615;53.602;11.418;2023-07-13T12:36:23;100909.56;;;25.20;63.58
3206;BME280;1615;53.602;11.418;2023-07-13T12:38:51;100866.53;;;24.62;60.81
3206;BME280;1615;53.602;11.418;2023-07-13T12:41:17;100916.97;;;24.98;61.05
3206;BME280;1615;53.602;11.418;2023-07-13T12:43:45;100890.88;;;24.91;62.22
3206;BME280;1615;53.602;11.418;2023-07-13T12:46:23;100916.94;;;25.35;68.05
3206;BME280;1615;53.602;11.418;2023-07-13T12:48:52;100903.66;;;25.32;59.74
3206;BME280;1615;53.602;11.418;2023-07-13T12:51:22;100921.75;;;25.38;61.38
3206;BME280;1615;53.602;11.418;2023-07-13T12:53:55;100876.41;;;24.89;59.51
3206;BME280;1615;53.602;11.418;2023-07-13T12:56:23;100774.00;;;24.22;58.47
3206;BME280;1615;53.602;11.418;2023-07-13T12:58:55;100842.41;;;24.57;58.68
3206;BME280;1615;53.602;11.418;2023-07-13T13:01:27;100915.53;;;25.15;60.27
3206;BME280;1615;53.602;11.418;2023-07-13T13:03:53;100918.38;;;25.22;57.71
3206;BME280;1615;53.602;11.418;2023-07-13T13:06:26;100888.16;;;25.45;58.67
3206;BME280;1615;53.602;11.418;2023-07-13T13:08:57;100895.50;;;25.67;55.61
3206;BME280;1615;53.602;11.418;2023-07-13T13:11:28;100919.63;;;25.75;59.55
3206;BME280;1615;53.602;11.418;2023-07-13T13:13:54;100900.69;;;25.61;54.01
3206;BME280;1615;53.602;11.418;2023-07-13T13:18:51;100787.06;;;24.91;50.61
3206;BME280;1615;53.602;11.418;2023-07-13T13:21:17;100900.41;;;25.77;49.64
3206;BME280;1615;53.602;11.418;2023-07-13T13:23:43;100885.13;;;25.71;49.54
3206;BME280;1615;53.602;11.418;2023-07-13T13:26:12;100916.50;;;25.87;50.43